x

9444090 - Port Angeles, Wa (ptaw1) Weather Station

1:36 - Mon 21st Aug 2017 All times are PDT. -7 hours from GMT.

  • Wind
    6mph, 7mph gusts
  • Sea Temp 51°f
  • Aire Temp 56°f
  • Sea Pressure 1020.6mb
  • 9444090 - Port Angeles, Wa
  • 9444090 - Port Angeles, Wa

More Historic Weather Station data

Upgrade to MSW Pro to gain access to the past 30 days of data for over 8000 Wavebouys and Weather Stations around the globe.

Join

Comparision Forecast

View Surf forecast
   
lun 08/21 1:36 6 7 mph 1020.6mb 51f 56f
1:30 6 9 mph 1020.6mb 51f 56f
1:24 6 9 mph 1020.6mb 51f 56f
1:18 6 10 mph 1020.6mb 51f 56f
1:12 8 10 mph 1020.6mb 51f 55f
1:06 9 14 mph 1020.6mb 51f 55f
1:00 13 14 mph 1020.6mb 51f 55f
12:36 10 13 mph 1020.7mb 51f 55f
12:30 10 11 mph 1020.6mb 51f 55f
12:24 8 9 mph 1020.6mb 51f 55f
12:18 2 3 mph 1020.5mb 51f 56f
12:12 3 6 mph 1020.5mb 51f 57f
12:06 3 5 mph 1020.5mb 51f 58f
12:00 2 5 mph 1020.5mb 51f 58f
dom 08/20 11:36 3 8 mph 1020.4mb 51f 58f
11:30 6 10 mph 1020.4mb 52f 58f
11:24 7 10 mph 1020.4mb 52f 57f
11:18 5 8 mph 1020.5mb 52f 57f
11:12 5 8 mph 1020.5mb 52f 57f
11:06 6 8 mph 1020.5mb 52f 57f
11:00 6 13 mph 1020.5mb 52f 57f
10:36 11 15 mph 1020.4mb 52f 56f
10:30 13 15 mph 1020.4mb 52f 56f
10:24 9 11 mph 1020.4mb 52f 56f
10:18 7 8 mph 1020.4mb 52f 57f
10:12 8 11 mph 1020.5mb 52f 56f
10:06 9 14 mph 1020.6mb 52f 56f
10:00 11 13 mph 1020.6mb 52f 57f
9:36 10 14 mph 1020.6mb 52f 57f
9:30 14 17 mph 1020.6mb 52f 56f
9:24 13 15 mph 1020.6mb 52f 57f
9:18 9 13 mph 1020.6mb 52f 59f
9:12 7 9 mph 1020.5mb 53f 61f
9:06 7 11 mph 1020.5mb 53f 61f
9:00 6 9 mph 1020.5mb 53f 59f
8:36 8 13 mph 1020.4mb 53f 58f
8:30 8 10 mph 1020.4mb 53f 58f
8:24 8 13 mph 1020.3mb 53f 59f
8:18 8 13 mph 1020.3mb 53f 62f
8:12 6 9 mph 1020.2mb 53f 60f
8:06 8 11 mph 1020.2mb 53f 58f
8:00 9 11 mph 1020.2mb 53f 58f
7:36 11 13 mph 1020.1mb 53f 58f
7:30 10 13 mph 1020.1mb 53f 58f
7:24 9 13 mph 1020mb 53f 58f
7:18 8 11 mph 1020.1mb 53f 58f
7:12 9 13 mph 1020.1mb 53f 58f
7:06 11 14 mph 1020.2mb 53f 59f
7:00 14 17 mph 1020.2mb 53f 58f
6:36 11 15 mph 1020.1mb 53f 59f
6:30 10 14 mph 1020.1mb 53f 58f
6:24 10 14 mph 1020.1mb 53f 58f
6:18 9 13 mph 1020.1mb 53f 58f
6:12 8 11 mph 1020.1mb 53f 58f
6:06 9 15 mph 1020.1mb 53f 58f
6:00 13 16 mph 1020.1mb 53f 58f
5:36 16 18 mph 1020mb 53f 58f
5:30 10 13 mph 1020mb 53f 59f
5:24 9 16 mph 1019.9mb 53f 61f
5:18 13 16 mph 1019.7mb 53f 61f
5:12 13 16 mph 1019.8mb 53f 63f
5:06 11 18 mph 1019.9mb 53f 63f
5:00 13 18 mph 1020mb 53f 65f
4:30 23 29 mph 1020.4mb 53f 60f
4:24 21 28 mph 1020.2mb 52f 60f
4:18 22 29 mph 1020.2mb 52f 59f
4:12 21 25 mph 1020.2mb 52f 58f
4:06 21 24 mph 1020mb 52f 58f
4:00 21 24 mph 1020.1mb 52f 58f
3:36 18 25 mph 1020.2mb 53f 57f
3:30 17 25 mph 1020.3mb 53f 57f
3:24 20 24 mph 1020.4mb 53f 57f
3:18 20 26 mph 1020.5mb 53f 57f
3:12 18 24 mph 1020.6mb 53f 57f
3:06 18 23 mph 1020.6mb 53f 57f
3:00 17 21 mph 1020.7mb 53f 57f
2:36 17 22 mph 1020.8mb 53f 57f
2:30 15 18 mph 1020.9mb 53f 57f
2:24 15 16 mph 1020.9mb 53f 57f
2:18 14 17 mph 1020.9mb 53f 57f
2:12 14 18 mph 1020.9mb 53f 58f
2:06 14 18 mph 1021mb 53f 58f
2:00 14 18 mph 1021.1mb 54f 57f
1:36 16 21 mph 1021.1mb 54f 56f
1:30 16 22 mph 1021.1mb 54f 57f
1:24 16 21 mph 1021mb 54f 56f
1:18 17 22 mph 1021mb 54f 56f
1:12 16 22 mph 1021mb 54f 56f
1:06 17 20 mph 1020.9mb 54f 56f
1:00 15 18 mph 1020.9mb 54f 56f
12:36 15 18 mph 1021mb 53f 56f
12:30 15 17 mph 1021mb 53f 56f
12:24 11 14 mph 1021.1mb 53f 56f
12:18 11 15 mph 1021.1mb 53f 56f
12:12 14 20 mph 1021.1mb 53f 56f
12:06 18 24 mph 1021.2mb 53f 56f
12:00 18 22 mph 1021.2mb 53f 57f
11:36 15 18 mph 1021.4mb 53f 57f
11:30 14 18 mph 1021.5mb 53f 56f
11:24 15 18 mph 1021.5mb 53f 56f
11:18 14 16 mph 1021.4mb 53f 56f
11:12 11 15 mph 1021.4mb 53f 55f
11:06 11 18 mph 1021.4mb 53f 55f
11:00 15 18 mph 1021.4mb 53f 55f
10:36 13 14 mph 1021.3mb 53f 55f
10:30 13 15 mph 1021.4mb 53f 55f
10:24 13 15 mph 1021.5mb 53f 55f
10:18 10 13 mph 1021.4mb 53f 55f
10:12 13 15 mph 1021.6mb 53f 55f
10:06 13 16 mph 1021.6mb 53f 55f
10:00 10 16 mph 1021.7mb 53f 55f
9:36 14 15 mph 1021.6mb 53f 55f
9:30 13 15 mph 1021.6mb 53f 55f
9:24 11 14 mph 1021.6mb 53f 55f
9:18 11 14 mph 1021.5mb 53f 55f
9:12 13 15 mph 1021.5mb 53f 55f
9:06 11 13 mph 1021.5mb 53f 55f
9:00 8 10 mph 1021.4mb 53f 55f
8:36 8 10 mph 1021.4mb 53f 55f
8:30 8 9 mph 1021.4mb 53f 55f
8:24 7 9 mph 1021.4mb 53f 55f
8:18 8 9 mph 1021.4mb 53f 56f
8:12 7 9 mph 1021.4mb 53f 56f
8:06 5 7 mph 1021.5mb 53f 57f
8:00 5 9 mph 1021.5mb 53f 56f
7:36 11 14 mph 1021.5mb 53f 56f
7:30 10 15 mph 1021.4mb 53f 56f
7:24 7 8 mph 1021.4mb 53f 55f
7:18 5 7 mph 1021.2mb 53f 55f
7:12 6 8 mph 1021.1mb 53f 55f
7:06 5 7 mph 1021.1mb 53f 54f
7:00 3 5 mph 1021.1mb 53f 54f
6:36 3 5 mph 1021mb 53f 54f
6:30 3 6 mph 1021.1mb 53f 54f
6:24 2 5 mph 1021.2mb 53f 54f
6:18 6 7 mph 1021.2mb 53f 54f
6:12 7 10 mph 1021.2mb 53f 54f
6:06 9 11 mph 1021.2mb 53f 54f
6:00 6 8 mph 1021.3mb 53f 55f
5:36 8 11 mph 1021.3mb 53f 56f
5:30 7 11 mph 1021.2mb 53f 56f
5:24 7 11 mph 1021.1mb 53f 55f
5:18 6 8 mph 1021.2mb 53f 55f
5:12 5 8 mph 1021.3mb 53f 55f
5:06 6 9 mph 1021.3mb 53f 55f
5:00 5 10 mph 1021.2mb 53f 55f
4:36 5 10 mph 1021.3mb 53f 56f
4:30 5 14 mph 1021.3mb 53f 56f
4:24 9 14 mph 1021.3mb 53f 56f
4:18 7 11 mph 1021.2mb 53f 55f
4:12 8 11 mph 1021.2mb 53f 55f
4:06 8 11 mph 1021.3mb 53f 55f
4:00 9 13 mph 1021.3mb 53f 56f
3:36 10 14 mph 1021.5mb 53f 56f
3:30 6 8 mph 1021.6mb 53f 56f
3:24 6 8 mph 1021.6mb 53f 56f
3:18 7 9 mph 1021.5mb 53f 56f
3:12 6 8 mph 1021.6mb 53f 56f
3:06 3 6 mph 1021.6mb 53f 55f
3:00 7 11 mph 1021.7mb 53f 55f
2:54 8 13 mph 1021.7mb 53f 55f
2:48 10 13 mph 1021.6mb 53f 55f
2:36 6 9 mph 1021.6mb 53f 56f
2:30 5 7 mph 1021.5mb 53f 57f
2:24 6 9 mph 1021.5mb 53f 57f
2:18 8 10 mph 1021.6mb 53f 57f
2:12 9 13 mph 1021.5mb 53f 57f
2:06 9 13 mph 1021.6mb 53f 57f
2:00 8 9 mph 1021.6mb 53f 57f
1:54 7 10 mph 1021.7mb 53f 57f
1:48 8 11 mph 1021.7mb 53f 57f
1:36 6 8 mph 1021.7mb 53f 58f
1:30 5 8 mph 1021.8mb 53f 58f
1:24 5 9 mph 1021.8mb 53f 58f
1:18 3 6 mph 1021.8mb 53f 58f
1:12 3 7 mph 1021.8mb 53f 58f
1:06 6 8 mph 1021.8mb 53f 58f
1:00 7 13 mph 1021.8mb 53f 58f
12:54 6 10 mph 1021.9mb 53f 58f
12:48 6 10 mph 1021.9mb 52f 58f
12:36 7 10 mph 1022.1mb 52f 58f
12:30 7 10 mph 1022.1mb 52f 58f
12:24 8 11 mph 1022mb 52f 58f
12:18 9 13 mph 1022mb 51f 58f
12:12 9 11 mph 1021.9mb 51f 58f
12:06 9 13 mph 1021.9mb 51f 58f
12:00 5 9 mph 1021.7mb 51f 59f
sáb 08/19 11:54 7 10 mph 1021.7mb 51f 59f
11:48 5 8 mph 1021.7mb 51f 59f
11:36 5 8 mph 1021.7mb 51f 59f
11:30 3 8 mph 1021.8mb 51f 58f
11:24 6 10 mph 1021.8mb 51f 59f
11:18 9 11 mph 1021.7mb 51f 59f
11:12 9 14 mph 1021.8mb 51f 59f
11:06 9 14 mph 1021.9mb 51f 58f
11:00 7 9 mph 1022mb 51f 59f
10:54 9 11 mph 1022.1mb 51f 59f
10:48 9 13 mph 1022mb 51f 59f
9:54 9 14 mph 1022.2mb 52f 59f
9:48 10 14 mph 1022.3mb 52f 59f
9:36 9 15 mph 1022.3mb 52f 59f
9:30 10 14 mph 1022.4mb 52f 59f
9:24 8 13 mph 1022.4mb 52f 59f
9:18 6 14 mph 1022.4mb 52f 59f
9:12 7 15 mph 1022.5mb 52f 59f
9:06 8 13 mph 1022.5mb 53f 59f
9:00 7 16 mph 1022.5mb 53f 59f
8:54 7 11 mph 1022.4mb 53f 59f
8:48 8 18 mph 1022.4mb 53f 59f
8:36 14 18 mph 1022.5mb 53f 59f
8:30 14 20 mph 1022.3mb 53f 59f
8:24 10 16 mph 1022.2mb 53f 59f
8:18 13 16 mph 1022.2mb 53f 59f
8:12 14 18 mph 1022.1mb 53f 59f
8:06 15 22 mph 1022.1mb 53f 60f
8:00 15 20 mph 1022.2mb 54f 60f
7:54 13 18 mph 1022.2mb 54f 60f
7:48 11 17 mph 1022.2mb 54f 60f
7:36 11 17 mph 1022.1mb 54f 58f
7:30 11 17 mph 1022.1mb 54f 59f
7:24 15 18 mph 1022mb 54f 58f
7:18 13 16 mph 1022.1mb 54f 59f
7:12 16 21 mph 1022.1mb 54f 59f
7:06 15 21 mph 1022mb 55f 59f
7:00 14 18 mph 1022mb 55f 59f
6:54 14 18 mph 1022mb 55f 60f
6:48 13 16 mph 1022mb 55f 60f
6:36 17 21 mph 1022mb 55f 61f
6:30 17 22 mph 1022mb 55f 60f
6:24 17 22 mph 1022.1mb 55f 60f
6:18 15 20 mph 1022.1mb 55f 59f
6:12 13 15 mph 1022mb 55f 59f
6:06 13 17 mph 1022mb 55f 59f
6:00 14 18 mph 1022.1mb 54f 59f
5:54 13 17 mph 1022.1mb 54f 60f
5:48 13 17 mph 1022.2mb 54f 59f
5:36 16 21 mph 1022.2mb 54f 58f
5:30 17 22 mph 1022.2mb 54f 58f
5:24 18 22 mph 1022.2mb 54f 58f
5:18 20 23 mph 1022.3mb 54f 58f
5:12 17 22 mph 1022.4mb 54f 59f
5:06 17 20 mph 1022.4mb 54f 59f
5:00 17 20 mph 1022.3mb 54f 58f
4:54 16 18 mph 1022.3mb 54f 58f
4:36 17 20 mph 1022.5mb 54f 59f
4:30 15 20 mph 1022.6mb 54f 59f
4:24 16 18 mph 1022.6mb 54f 59f
4:18 14 18 mph 1022.6mb 53f 58f
4:12 15 18 mph 1022.7mb 53f 58f
4:06 15 17 mph 1022.8mb 53f 58f
4:00 15 18 mph 1022.9mb 53f 58f
3:54 17 21 mph 1023mb 53f 57f
3:48 15 17 mph 1023mb 53f 57f
3:36 15 17 mph 1023mb 53f 58f
3:30 15 16 mph 1023mb 53f 58f
3:24 14 17 mph 1023mb 53f 58f
3:18 15 17 mph 1023mb 53f 59f
3:12 14 16 mph 1023mb 53f 58f
3:06 15 18 mph 1023.1mb 53f 58f
3:00 16 18 mph 1023.1mb 53f 58f
2:54 16 17 mph 1023mb 53f 58f
2:48 15 17 mph 1023mb 53f 58f
2:36 14 16 mph 1022.9mb 53f 59f
2:30 14 15 mph 1022.9mb 53f 60f
2:24 11 14 mph 1022.9mb 53f 60f
2:18 11 13 mph 1022.9mb 53f 60f
2:12 11 13 mph 1023mb 53f 60f
2:06 10 11 mph 1023mb 53f 59f
2:00 9 11 mph 1023.1mb 53f 60f
1:54 10 11 mph 1023.1mb 53f 59f
1:48 10 13 mph 1023.2mb 53f 59f
1:36 11 14 mph 1023.3mb 53f 59f
1:30 11 14 mph 1023.2mb 53f 59f
1:24 10 11 mph 1023.2mb 53f 59f
1:18 10 13 mph 1023.2mb 53f 59f
1:12 11 13 mph 1023.3mb 53f 58f
1:06 11 13 mph 1023.3mb 53f 58f
1:00 10 13 mph 1023.3mb 53f 58f
12:54 11 13 mph 1023.4mb 53f 58f
12:48 11 13 mph 1023.3mb 53f 58f
12:36 9 13 mph 1023.4mb 53f 57f
12:30 10 14 mph 1023.4mb 53f 58f
12:24 11 14 mph 1023.4mb 53f 58f
12:18 10 11 mph 1023.4mb 53f 57f
12:12 9 10 mph 1023.4mb 53f 57f
12:06 8 10 mph 1023.4mb 53f 57f
12:00 8 13 mph 1023.4mb 53f 57f
11:54 10 11 mph 1023.5mb 53f 57f
11:48 9 11 mph 1023.5mb 53f 57f
11:36 8 10 mph 1023.5mb 53f 57f
11:30 8 10 mph 1023.5mb 53f 57f
11:24 9 11 mph 1023.5mb 53f 57f
11:18 8 10 mph 1023.5mb 53f 57f
11:12 8 11 mph 1023.5mb 53f 57f
11:06 8 10 mph 1023.5mb 53f 57f
11:00 8 11 mph 1023.5mb 53f 57f
10:54 8 13 mph 1023.5mb 53f 57f
10:48 9 10 mph 1023.5mb 53f 57f
10:36 10 13 mph 1023.4mb 53f 57f
10:30 10 13 mph 1023.3mb 53f 57f
10:24 10 13 mph 1023.2mb 53f 57f
10:18 10 14 mph 1023.2mb 53f 57f
10:12 11 14 mph 1023.1mb 53f 56f
10:06 11 13 mph 1023.1mb 53f 56f
10:00 11 14 mph 1023.1mb 53f 57f
9:54 10 13 mph 1023.1mb 53f 57f
9:48 10 14 mph 1023.1mb 53f 57f
9:36 10 13 mph 1023.1mb 53f 57f
9:30 10 13 mph 1023mb 53f 57f
9:24 9 11 mph 1023mb 53f 57f
9:18 10 11 mph 1022.9mb 53f 57f
9:12 9 11 mph 1022.9mb 53f 57f
9:06 10 13 mph 1022.9mb 53f 57f
9:00 9 13 mph 1022.9mb 53f 57f
8:54 9 13 mph 1023mb 53f 57f
8:48 8 13 mph 1023mb 53f 57f
8:36 8 11 mph 1023mb 53f 57f
8:30 10 13 mph 1023mb 53f 57f
8:24 7 10 mph 1023.1mb 53f 57f
8:18 6 9 mph 1023.1mb 53f 57f
8:12 6 10 mph 1023.1mb 53f 57f
8:06 7 10 mph 1023mb 53f 57f
8:00 6 9 mph 1022.9mb 53f 57f
7:54 7 10 mph 1022.9mb 53f 57f
7:48 5 8 mph 1022.8mb 53f 57f
7:36 5 9 mph 1022.8mb 53f 56f
7:30 6 10 mph 1022.8mb 53f 56f
7:24 8 10 mph 1022.8mb 53f 56f
7:18 6 9 mph 1022.7mb 53f 56f
7:12 5 8 mph 1022.7mb 53f 56f
7:06 5 10 mph 1022.7mb 53f 56f
7:00 6 9 mph 1022.6mb 53f 55f
6:54 7 10 mph 1022.6mb 53f 55f
6:48 6 8 mph 1022.6mb 53f 55f
6:36 3 7 mph 1022.6mb 53f 54f
6:30 3 5 mph 1022.5mb 53f 54f
6:24 3 5 mph 1022.4mb 53f 54f
6:18 5 8 mph 1022.4mb 53f 55f
6:12 6 8 mph 1022.3mb 53f 55f
6:06 5 9 mph 1022.3mb 53f 55f
6:00 8 13 mph 1022.2mb 53f 55f
5:54 7 11 mph 1022.2mb 53f 55f
5:48 5 9 mph 1022.2mb 53f 55f
5:36 6 10 mph 1022.1mb 53f 55f
5:30 6 10 mph 1022.2mb 53f 55f
5:24 7 16 mph 1022mb 53f 56f
5:18 14 18 mph 1022mb 53f 56f
5:12 13 17 mph 1022mb 53f 56f
5:06 14 18 mph 1022mb 53f 56f
5:00 9 14 mph 1022mb 53f 56f
4:54 8 11 mph 1022mb 53f 55f
4:48 3 8 mph 1021.9mb 53f 55f
4:36 3 6 mph 1021.9mb 53f 55f
4:30 6 8 mph 1021.9mb 53f 55f
4:24 5 10 mph 1021.9mb 53f 55f
4:18 7 14 mph 1021.9mb 53f 56f
4:12 9 14 mph 1021.9mb 53f 56f
4:06 9 14 mph 1021.8mb 53f 56f
4:00 6 9 mph 1021.7mb 53f 56f
3:54 6 10 mph 1021.6mb 53f 56f
3:48 7 13 mph 1021.5mb 53f 56f
3:36 9 16 mph 1021.5mb 53f 57f
3:30 11 16 mph 1021.5mb 53f 57f
3:24 10 15 mph 1021.6mb 53f 56f
3:18 8 13 mph 1021.6mb 53f 56f
3:12 9 11 mph 1021.6mb 53f 56f
3:06 5 11 mph 1021.6mb 53f 56f
3:00 8 13 mph 1021.7mb 53f 56f
2:54 6 13 mph 1021.7mb 53f 56f
2:48 9 13 mph 1021.8mb 53f 56f
2:36 9 16 mph 1021.7mb 53f 57f
2:30 9 14 mph 1021.8mb 53f 57f
2:24 6 11 mph 1021.7mb 53f 57f
2:18 8 14 mph 1021.7mb 53f 57f
2:12 8 13 mph 1021.8mb 53f 57f
2:06 8 14 mph 1021.8mb 53f 57f
2:00 6 10 mph 1021.7mb 53f 57f
1:54 8 15 mph 1021.7mb 53f 57f
1:48 10 14 mph 1021.7mb 53f 57f
1:36 8 14 mph 1021.7mb 53f 57f
1:30 8 13 mph 1021.7mb 53f 57f
1:24 7 11 mph 1021.8mb 53f 57f
1:18 6 13 mph 1021.8mb 53f 57f
1:12 13 16 mph 1021.8mb 53f 58f
1:06 13 21 mph 1021.8mb 53f 57f
1:00 10 16 mph 1021.9mb 53f 58f
12:54 11 15 mph 1021.8mb 53f 58f
12:48 8 14 mph 1021.9mb 53f 58f
12:36 9 14 mph 1021.9mb 53f 58f
12:30 10 15 mph 1021.9mb 53f 58f
12:24 9 11 mph 1021.8mb 53f 58f
12:18 10 14 mph 1021.9mb 53f 58f
12:12 5 9 mph 1021.9mb 53f 58f
12:06 7 14 mph 1021.9mb 53f 58f
12:00 5 16 mph 1022mb 53f 58f
vie 08/18 11:54 6 11 mph 1022mb 53f 58f
11:48 8 14 mph 1021.9mb 52f 58f
11:36 6 13 mph 1021.9mb 52f 58f
11:30 10 14 mph 1021.8mb 52f 58f
11:24 8 13 mph 1021.8mb 52f 58f
11:18 7 15 mph 1021.8mb 52f 58f
11:12 6 11 mph 1021.7mb 52f 58f
11:06 9 16 mph 1021.7mb 52f 58f
11:00 14 22 mph 1021.5mb 52f 59f
10:54 17 22 mph 1021.4mb 52f 59f
10:48 16 22 mph 1021.4mb 52f 59f
10:36 17 22 mph 1021.4mb 52f 59f
10:30 17 21 mph 1021.5mb 52f 59f
10:24 18 23 mph 1021.5mb 52f 59f
10:18 15 21 mph 1021.4mb 52f 59f
10:12 13 22 mph 1021.4mb 52f 59f
10:06 16 26 mph 1021.5mb 52f 59f
10:00 17 23 mph 1021.5mb 52f 59f
9:54 15 21 mph 1021.5mb 52f 59f
9:48 14 20 mph 1021.6mb 52f 59f
9:36 9 16 mph 1021.5mb 52f 59f
9:30 10 17 mph 1021.3mb 52f 59f
9:24 11 20 mph 1021.2mb 52f 59f
9:18 11 18 mph 1021.2mb 52f 59f
9:12 14 22 mph 1021.4mb 52f 59f
9:06 14 20 mph 1021.5mb 52f 59f
9:00 13 18 mph 1021.5mb 52f 59f
8:54 15 23 mph 1021.4mb 52f 59f
8:48 10 22 mph 1021.3mb 52f 59f
8:36 10 22 mph 1021.1mb 52f 59f
8:30 10 20 mph 1021.1mb 52f 59f
8:24 10 17 mph 1021.3mb 52f 59f
8:18 8 15 mph 1021.3mb 52f 59f
8:12 9 15 mph 1021.3mb 52f 60f
8:06 14 23 mph 1021.1mb 53f 60f
8:00 15 21 mph 1021mb 53f 60f
7:54 14 24 mph 1021.1mb 53f 60f
7:48 14 21 mph 1021mb 53f 60f
7:36 15 28 mph 1021.1mb 53f 60f
7:30 17 30 mph 1021mb 53f 59f
7:24 18 30 mph 1021mb 53f 59f
7:18 20 26 mph 1021mb 53f 58f
7:12 21 26 mph 1021mb 53f 58f
7:06 21 24 mph 1020.8mb 54f 58f
7:00 15 22 mph 1020.8mb 54f 59f
6:54 18 23 mph 1020.7mb 54f 60f
6:48 13 16 mph 1020.8mb 54f 61f
6:36 10 14 mph 1020.9mb 54f 62f
6:30 11 16 mph 1020.9mb 54f 63f
6:24 7 11 mph 1020.9mb 54f 64f
6:18 6 13 mph 1020.9mb 54f 63f
6:12 13 16 mph 1021mb 54f 60f
6:06 11 17 mph 1021mb 54f 62f
6:00 16 23 mph 1021mb 54f 60f
5:54 17 22 mph 1020.9mb 54f 59f
5:48 18 22 mph 1020.9mb 54f 59f
5:36 15 17 mph 1020.9mb 54f 60f
5:30 10 16 mph 1020.9mb 54f 62f
5:24 11 16 mph 1020.9mb 54f 61f
5:18 13 15 mph 1020.9mb 54f 61f
5:12 9 13 mph 1021mb 54f 63f
5:06 6 9 mph 1021mb 54f 63f
5:00 10 18 mph 1021.1mb 54f 63f
4:54 15 18 mph 1021.2mb 54f 61f
4:48 15 20 mph 1021.2mb 54f 61f
4:36 14 21 mph 1021.3mb 54f 62f
4:30 15 21 mph 1021.4mb 54f 61f
4:24 17 22 mph 1021.5mb 54f 61f
4:18 17 23 mph 1021.4mb 54f 61f
4:12 10 14 mph 1021.5mb 54f 63f
4:06 10 16 mph 1021.5mb 54f 62f
4:00 11 17 mph 1021.6mb 54f 61f
3:54 10 15 mph 1021.6mb 54f 60f
3:48 13 15 mph 1021.6mb 54f 60f
3:36 13 20 mph 1021.8mb 54f 61f
3:30 13 21 mph 1021.8mb 54f 62f
3:24 11 20 mph 1021.8mb 53f 62f
3:18 16 22 mph 1021.7mb 53f 62f
3:12 11 15 mph 1021.7mb 53f 62f
3:06 13 18 mph 1021.7mb 53f 62f
3:00 10 16 mph 1021.8mb 53f 62f
2:54 13 20 mph 1021.8mb 53f 62f
2:48 14 18 mph 1021.8mb 53f 62f
2:36 15 22 mph 1021.7mb 53f 61f
2:30 15 18 mph 1021.7mb 53f 60f
2:24 13 16 mph 1021.6mb 53f 61f
2:18 14 17 mph 1021.5mb 53f 61f
2:12 13 15 mph 1021.5mb 53f 60f
2:06 13 15 mph 1021.5mb 53f 60f
2:00 13 16 mph 1021.6mb 53f 60f
1:54 14 15 mph 1021.5mb 53f 60f
1:48 14 16 mph 1021.5mb 53f 60f
1:36 15 17 mph 1021.4mb 53f 61f
1:30 13 15 mph 1021.4mb 53f 60f
1:24 11 15 mph 1021.4mb 53f 60f
1:18 11 14 mph 1021.4mb 53f 59f
1:12 14 16 mph 1021.4mb 53f 59f
1:06 15 18 mph 1021.5mb 53f 59f
1:00 17 22 mph 1021.5mb 53f 59f
12:54 20 23 mph 1021.4mb 53f 59f
12:48 21 23 mph 1021.4mb 53f 60f
12:36 16 20 mph 1021.3mb 53f 59f
12:30 13 17 mph 1021.3mb 53f 59f
12:24 13 16 mph 1021.3mb 53f 59f
12:18 13 17 mph 1021.4mb 53f 59f
12:12 15 20 mph 1021.3mb 53f 58f
12:06 9 11 mph 1021.3mb 53f 58f
12:00 6 11 mph 1021.3mb 53f 58f
11:54 10 15 mph 1021.4mb 53f 58f
11:48 14 16 mph 1021.4mb 53f 58f
11:36 16 18 mph 1021.4mb 53f 58f
11:30 16 18 mph 1021.3mb 53f 58f
11:24 15 17 mph 1021.3mb 53f 58f
11:18 15 17 mph 1021.3mb 53f 58f
11:12 15 20 mph 1021.3mb 53f 58f
11:06 17 20 mph 1021.2mb 53f 57f
11:00 16 18 mph 1021.2mb 53f 57f
10:54 16 18 mph 1021.2mb 53f 58f
10:48 15 17 mph 1021.1mb 53f 58f
10:36 14 16 mph 1021.1mb 53f 58f
10:30 13 15 mph 1021.1mb 53f 57f
10:24 13 14 mph 1021.1mb 53f 57f
10:18 11 14 mph 1021.2mb 53f 57f
10:12 13 15 mph 1021.2mb 52f 57f
10:06 15 18 mph 1021.1mb 52f 57f
10:00 15 17 mph 1021.1mb 52f 57f
9:54 15 17 mph 1021mb 52f 57f
9:48 11 13 mph 1021.1mb 52f 57f
9:36 10 13 mph 1021.1mb 52f 56f
9:30 9 13 mph 1021.1mb 52f 56f
9:24 7 9 mph 1021.1mb 52f 57f
9:18 10 13 mph 1021mb 52f 57f
9:12 6 9 mph 1021mb 52f 58f
9:06 8 9 mph 1021mb 52f 57f
9:00 7 8 mph 1021.1mb 52f 58f
8:54 5 6 mph 1021.1mb 52f 58f
8:48 5 8 mph 1021.1mb 52f 57f
8:36 6 9 mph 1021.1mb 52f 56f
8:30 3 6 mph 1021.1mb 52f 57f
8:24 3 7 mph 1021.1mb 53f 57f
8:18 2 7 mph 1021.1mb 53f 58f
8:12 5 8 mph 1021.1mb 53f 58f
8:06 7 9 mph 1021.2mb 53f 57f
8:00 8 10 mph 1021.2mb 53f 57f
7:54 7 9 mph 1021.2mb 53f 57f
7:48 6 9 mph 1021.2mb 53f 57f
7:36 5 8 mph 1021.1mb 53f 57f
7:30 5 9 mph 1021.1mb 53f 60f
7:24 3 6 mph 1021mb 53f 61f
7:18 1 5 mph 1021mb 53f 60f
7:12 2 3 mph 1021.1mb 53f 59f
7:06 2 6 mph 1021mb 53f 59f
7:00 3 6 mph 1020.9mb 53f 59f
6:54 5 6 mph 1020.9mb 53f 59f
6:48 3 6 mph 1020.8mb 53f 59f
6:36 2 3 mph 1020.9mb 53f 58f
6:30 2 5 mph 1020.9mb 53f 58f
6:24 3 6 mph 1020.8mb 53f 58f
6:18 5 6 mph 1020.8mb 53f 59f
6:12 3 6 mph 1020.8mb 53f 59f
6:06 5 8 mph 1020.8mb 53f 60f
6:00 7 13 mph 1020.7mb 53f 60f
5:54 7 15 mph 1020.7mb 53f 60f
5:48 6 10 mph 1020.8mb 53f 60f
5:36 5 9 mph 1020.7mb 53f 60f
5:30 8 15 mph 1020.8mb 53f 60f
5:24 7 13 mph 1020.7mb 53f 59f
5:18 5 13 mph 1020.7mb 53f 59f
5:12 7 13 mph 1020.6mb 53f 59f
5:06 7 15 mph 1020.6mb 53f 59f
5:00 6 16 mph 1020.6mb 53f 58f
4:54 8 11 mph 1020.6mb 53f 59f
4:48 6 8 mph 1020.5mb 53f 57f
4:36 2 6 mph 1020.5mb 53f 57f
4:30 3 9 mph 1020.6mb 53f 57f
4:24 2 8 mph 1020.6mb 53f 57f
4:18 1 3 mph 1020.5mb 53f 58f
4:12 3 5 mph 1020.6mb 53f 58f
4:06 3 5 mph 1020.6mb 53f 58f
4:00 2 5 mph 1020.7mb 53f 58f
3:54 3 6 mph 1020.7mb 53f 58f
3:48 3 6 mph 1020.7mb 53f 58f
3:36 5 13 mph 1020.9mb 53f 58f
3:30 7 10 mph 1020.8mb 53f 58f
3:24 8 11 mph 1020.8mb 53f 58f
3:18 6 9 mph 1020.8mb 53f 58f
3:12 6 10 mph 1020.7mb 53f 58f
3:06 7 11 mph 1020.8mb 53f 58f
3:00 6 10 mph 1020.8mb 53f 58f
2:54 6 8 mph 1020.7mb 53f 58f
2:48 5 6 mph 1020.7mb 53f 58f
2:36 1 3 mph 1020.7mb 53f 58f
2:30 1 3 mph 1020.7mb 53f 58f
2:24 3 6 mph 1020.7mb 53f 58f
2:18 2 7 mph 1020.7mb 53f 59f
2:12 3 7 mph 1020.7mb 53f 59f
2:06 6 9 mph 1020.7mb 53f 59f
2:00 6 11 mph 1020.7mb 53f 59f
1:54 6 10 mph 1020.7mb 53f 58f
1:48 6 11 mph 1020.8mb 53f 58f
1:36 7 14 mph 1020.9mb 53f 58f
1:30 5 11 mph 1021mb 53f 58f
1:24 7 10 mph 1021mb 53f 58f
1:18 6 14 mph 1021.1mb 53f 58f
1:12 5 14 mph 1021.2mb 53f 58f
1:06 9 16 mph 1021.2mb 53f 58f
1:00 6 13 mph 1021.2mb 53f 58f
12:54 7 13 mph 1021.1mb 53f 58f
12:48 6 14 mph 1021.2mb 53f 58f
12:36 8 13 mph 1021.2mb 53f 59f
12:30 5 7 mph 1021.1mb 53f 59f
12:24 6 9 mph 1021.2mb 53f 59f
12:18 3 11 mph 1021.3mb 53f 59f
12:12 6 10 mph 1021.4mb 53f 59f
12:06 6 10 mph 1021.5mb 53f 59f
12:00 8 15 mph 1021.5mb 53f 59f
jue 08/17 11:54 8 15 mph 1021.5mb 53f 59f
11:36 7 11 mph 1021.6mb 53f 59f
11:30 9 16 mph 1021.7mb 53f 59f
11:24 8 15 mph 1021.7mb 53f 59f
11:18 9 15 mph 1021.7mb 53f 59f
11:12 7 15 mph 1021.7mb 53f 59f
11:06 7 14 mph 1021.7mb 53f 59f
11:00 7 14 mph 1021.8mb 53f 59f
10:54 7 13 mph 1021.8mb 53f 59f
10:48 7 11 mph 1021.8mb 53f 59f
10:36 3 10 mph 1021.7mb 53f 59f
10:30 6 13 mph 1021.7mb 52f 59f
10:24 8 13 mph 1021.7mb 52f 59f
10:18 5 13 mph 1021.7mb 52f 59f
10:12 9 14 mph 1021.7mb 52f 59f
10:06 7 11 mph 1021.7mb 52f 59f
10:00 8 14 mph 1021.8mb 52f 59f
9:54 8 14 mph 1021.7mb 52f 59f
9:48 8 14 mph 1021.7mb 52f 59f
9:36 7 13 mph 1021.7mb 52f 59f
9:30 7 15 mph 1021.7mb 52f 59f
9:24 7 13 mph 1021.7mb 52f 59f
9:18 9 13 mph 1021.8mb 52f 59f
9:12 6 15 mph 1021.8mb 52f 59f
9:06 10 16 mph 1021.7mb 52f 59f
9:00 7 14 mph 1021.7mb 52f 59f
8:54 10 16 mph 1021.6mb 52f 59f
8:48 10 16 mph 1021.6mb 52f 59f
8:36 13 18 mph 1021.4mb 52f 60f
8:30 13 21 mph 1021.4mb 52f 60f
8:24 11 17 mph 1021.4mb 52f 60f
8:18 14 20 mph 1021.4mb 52f 60f
8:12 11 17 mph 1021.4mb 52f 60f
8:06 16 20 mph 1021.4mb 52f 60f
8:00 14 18 mph 1021.5mb 52f 60f
7:54 15 20 mph 1021.5mb 52f 60f
7:48 15 21 mph 1021.5mb 52f 60f
7:36 15 20 mph 1021.5mb 52f 60f
7:30 16 22 mph 1021.5mb 52f 61f
7:24 20 23 mph 1021.5mb 52f 60f
7:18 17 22 mph 1021.5mb 52f 61f
7:12 20 25 mph 1021.4mb 52f 61f
7:06 21 24 mph 1021.5mb 52f 61f
7:00 20 24 mph 1021.5mb 52f 61f
6:54 18 22 mph 1021.5mb 52f 61f
6:48 20 28 mph 1021.5mb 53f 61f
5:54 20 24 mph 1021.4mb 54f 61f
5:48 17 28 mph 1021.4mb 54f 62f
5:36 20 26 mph 1021.6mb 54f 62f
5:30 22 29 mph 1021.7mb 54f 62f
5:24 24 31 mph 1021.8mb 54f 62f
5:18 22 28 mph 1021.7mb 54f 61f
5:12 22 31 mph 1021.8mb 54f 62f
5:06 24 31 mph 1021.8mb 54f 61f
5:00 22 26 mph 1021.9mb 54f 62f
4:54 22 29 mph 1021.9mb 54f 62f
4:48 23 30 mph 1022mb 54f 62f
4:36 22 29 mph 1022mb 54f 62f
4:30 22 29 mph 1022mb 54f 62f
4:24 20 25 mph 1022mb 54f 61f
4:18 23 28 mph 1022.1mb 54f 61f
4:12 21 26 mph 1022.1mb 54f 61f
4:06 21 26 mph 1022.1mb 54f 61f
4:00 18 25 mph 1022.1mb 54f 61f
3:54 21 25 mph 1022.2mb 54f 61f
3:48 21 29 mph 1022.2mb 54f 61f
3:36 21 25 mph 1022.2mb 54f 61f
3:30 17 22 mph 1022.3mb 54f 60f
3:24 18 24 mph 1022.3mb 54f 60f
3:18 18 22 mph 1022.4mb 54f 60f
3:12 16 22 mph 1022.4mb 54f 60f
3:06 17 24 mph 1022.4mb 54f 60f
3:00 18 23 mph 1022.4mb 54f 60f
2:54 18 22 mph 1022.4mb 54f 59f
2:48 17 22 mph 1022.4mb 53f 59f
2:36 16 22 mph 1022.5mb 53f 58f
2:30 16 23 mph 1022.6mb 53f 59f
2:24 17 22 mph 1022.6mb 53f 58f
2:18 18 24 mph 1022.6mb 53f 58f
2:12 16 22 mph 1022.6mb 53f 58f
2:06 17 23 mph 1022.6mb 53f 58f
2:00 16 22 mph 1022.6mb 53f 58f
1:54 18 23 mph 1022.6mb 53f 58f
1:48 16 23 mph 1022.6mb 53f 58f
1:36 17 22 mph 1022.6mb 53f 58f
1:30 16 23 mph 1022.6mb 53f 57f
1:24 17 22 mph 1022.7mb 53f 57f
1:18 20 23 mph 1022.7mb 53f 57f
1:12 16 20 mph 1022.7mb 53f 57f
1:06 16 22 mph 1022.7mb 53f 58f
1:00 17 22 mph 1022.7mb 53f 58f
12:54 17 23 mph 1022.7mb 53f 57f
12:48 17 23 mph 1022.8mb 53f 57f
12:36 18 22 mph 1022.8mb 53f 57f
12:30 17 22 mph 1022.9mb 53f 57f
12:24 17 21 mph 1022.9mb 53f 57f
12:18 16 20 mph 1022.8mb 53f 57f
12:12 16 18 mph 1022.8mb 53f 56f
12:06 16 21 mph 1022.8mb 53f 57f
12:00 15 21 mph 1022.8mb 53f 56f
11:54 16 20 mph 1022.8mb 53f 56f
11:48 14 17 mph 1022.8mb 53f 56f
11:36 14 18 mph 1022.7mb 53f 56f
11:30 13 20 mph 1022.6mb 53f 56f
11:24 15 21 mph 1022.6mb 53f 56f
11:18 15 18 mph 1022.6mb 53f 56f
11:12 14 18 mph 1022.5mb 53f 56f
11:06 15 18 mph 1022.5mb 53f 56f
11:00 16 18 mph 1022.4mb 53f 56f
10:54 14 17 mph 1022.4mb 53f 57f
10:48 14 20 mph 1022.5mb 53f 57f
10:36 15 18 mph 1022.5mb 53f 57f
10:30 15 18 mph 1022.5mb 53f 56f